sensor_id;sensor_type;location;lat;lon;timestamp;temperature;humidity
14119;DHT22;7138;49.246;9.100;2023-03-26T00:01:12;7.30;99.90
14119;DHT22;7138;49.246;9.100;2023-03-26T00:03:40;7.20;99.90
14119;DHT22;7138;49.246;9.100;2023-03-26T00:06:10;7.20;99.90
14119;DHT22;7138;49.246;9.100;2023-03-26T00:08:38;7.20;99.90
14119;DHT22;7138;49.246;9.100;2023-03-26T00:11:06;7.20;99.90
14119;DHT22;7138;49.246;9.100;2023-03-26T00:13:35;7.10;99.90
14119;DHT22;7138;49.246;9.100;2023-03-26T00:16:02;7.10;99.90
14119;DHT22;7138;49.246;9.100;2023-03-26T00:18:29;7.10;99.90
14119;DHT22;7138;49.246;9.100;2023-03-26T00:20:56;7.10;99.90
14119;DHT22;7138;49.246;9.100;2023-03-26T00:23:22;7.10;99.90
14119;DHT22;7138;49.246;9.100;2023-03-26T00:25:48;7.00;99.90
14119;DHT22;7138;49.246;9.100;2023-03-26T00:28:15;6.90;99.90
14119;DHT22;7138;49.246;9.100;2023-03-26T00:30:43;7.00;99.90
14119;DHT22;7138;49.246;9.100;2023-03-26T00:33:09;7.10;99.90
14119;DHT22;7138;49.246;9.100;2023-03-26T00:35:36;7.10;99.90
14119;DHT22;7138;49.246;9.100;2023-03-26T00:38:03;7.00;99.90
14119;DHT22;7138;49.246;9.100;2023-03-26T00:40:29;7.00;99.90
14119;DHT22;7138;49.246;9.100;2023-03-26T00:42:56;7.00;99.90
14119;DHT22;7138;49.246;9.100;2023-03-26T00:45:22;7.00;99.90
14119;DHT22;7138;49.246;9.100;2023-03-26T00:47:49;7.00;99.90
14119;DHT22;7138;49.246;9.100;2023-03-26T00:50:16;7.00;99.90
14119;DHT22;7138;49.246;9.100;2023-03-26T00:52:42;6.90;99.90
14119;DHT22;7138;49.246;9.100;2023-03-26T00:55:08;6.80;99.90
14119;DHT22;7138;49.246;9.100;2023-03-26T00:57:34;6.60;99.90
14119;DHT22;7138;49.246;9.100;2023-03-26T01:00:03;6.50;99.90
14119;DHT22;7138;49.246;9.100;2023-03-26T01:02:31;6.50;99.90
14119;DHT22;7138;49.246;9.100;2023-03-26T01:04:58;6.40;99.90
14119;DHT22;7138;49.246;9.100;2023-03-26T01:07:27;6.40;99.90
14119;DHT22;7138;49.246;9.100;2023-03-26T01:09:58;6.40;99.90
14119;DHT22;7138;49.246;9.100;2023-03-26T01:12:26;6.30;99.90
14119;DHT22;7138;49.246;9.100;2023-03-26T01:14:59;6.20;99.90
14119;DHT22;7138;49.246;9.100;2023-03-26T01:17:27;6.20;99.90
14119;DHT22;7138;49.246;9.100;2023-03-26T01:20:07;6.20;99.90
14119;DHT22;7138;49.246;9.100;2023-03-26T01:22:43;6.10;99.90
14119;DHT22;7138;49.246;9.100;2023-03-26T01:25:14;6.00;99.90
14119;DHT22;7138;49.246;9.100;2023-03-26T01:27:43;6.00;99.90
14119;DHT22;7138;49.246;9.100;2023-03-26T01:30:19;5.90;99.90
14119;DHT22;7138;49.246;9.100;2023-03-26T01:32:58;5.80;99.90
14119;DHT22;7138;49.246;9.100;2023-03-26T01:35:37;5.80;99.90
14119;DHT22;7138;49.246;9.100;2023-03-26T01:38:20;5.80;99.90
14119;DHT22;7138;49.246;9.100;2023-03-26T01:40:58;5.70;99.90
14119;DHT22;7138;49.246;9.100;2023-03-26T01:43:31;5.70;99.90
14119;DHT22;7138;49.246;9.100;2023-03-26T01:46:05;5.70;99.90
14119;DHT22;7138;49.246;9.100;2023-03-26T01:48:36;5.70;99.90
14119;DHT22;7138;49.246;9.100;2023-03-26T01:51:05;5.70;99.90
14119;DHT22;7138;49.246;9.100;2023-03-26T01:53:32;5.60;99.90
14119;DHT22;7138;49.246;9.100;2023-03-26T01:56:07;5.60;99.90
14119;DHT22;7138;49.246;9.100;2023-03-26T01:58:50;5.60;99.90
14119;DHT22;7138;49.246;9.100;2023-03-26T02:01:28;5.60;99.90
14119;DHT22;7138;49.246;9.100;2023-03-26T02:04:00;5.50;99.90
14119;DHT22;7138;49.246;9.100;2023-03-26T02:06:39;5.50;99.90
14119;DHT22;7138;49.246;9.100;2023-03-26T02:09:12;5.50;99.90
14119;DHT22;7138;49.246;9.100;2023-03-26T02:11:44;5.60;99.90
14119;DHT22;7138;49.246;9.100;2023-03-26T02:14:12;5.70;99.90
14119;DHT22;7138;49.246;9.100;2023-03-26T02:16:39;5.70;99.90
14119;DHT22;7138;49.246;9.100;2023-03-26T02:19:06;5.80;99.90
14119;DHT22;7138;49.246;9.100;2023-03-26T02:21:40;5.80;99.90
14119;DHT22;7138;49.246;9.100;2023-03-26T02:24:07;5.70;99.90
14119;DHT22;7138;49.246;9.100;2023-03-26T02:26:34;5.80;99.90
14119;DHT22;7138;49.246;9.100;2023-03-26T02:29:04;5.80;99.90
14119;DHT22;7138;49.246;9.100;2023-03-26T02:31:30;5.70;99.90
14119;DHT22;7138;49.246;9.100;2023-03-26T02:33:56;5.70;99.90
14119;DHT22;7138;49.246;9.100;2023-03-26T02:36:22;5.60;99.90
14119;DHT22;7138;49.246;9.100;2023-03-26T02:38:52;5.40;99.90
14119;DHT22;7138;49.246;9.100;2023-03-26T02:41:19;5.40;99.90
14119;DHT22;7138;49.246;9.100;2023-03-26T02:43:45;5.40;99.90
14119;DHT22;7138;49.246;9.100;2023-03-26T02:46:12;5.40;99.90
14119;DHT22;7138;49.246;9.100;2023-03-26T02:48:38;5.30;99.90
14119;DHT22;7138;49.246;9.100;2023-03-26T02:51:06;5.20;99.90
14119;DHT22;7138;49.246;9.100;2023-03-26T02:53:32;5.20;99.90
14119;DHT22;7138;49.246;9.100;2023-03-26T02:55:58;5.10;99.90
14119;DHT22;7138;49.246;9.100;2023-03-26T02:58:25;5.10;99.90
14119;DHT22;7138;49.246;9.100;2023-03-26T03:00:52;5.10;99.90
14119;DHT22;7138;49.246;9.100;2023-03-26T03:03:22;5.00;99.90
14119;DHT22;7138;49.246;9.100;2023-03-26T03:05:48;4.90;99.90
14119;DHT22;7138;49.246;9.100;2023-03-26T03:08:15;4.90;99.90
14119;DHT22;7138;49.246;9.100;2023-03-26T03:10:42;4.90;99.90
14119;DHT22;7138;49.246;9.100;2023-03-26T03:13:08;4.90;99.90
14119;DHT22;7138;49.246;9.100;2023-03-26T03:15:34;4.90;99.90
14119;DHT22;7138;49.246;9.100;2023-03-26T03:18:00;4.90;99.90
14119;DHT22;7138;49.246;9.100;2023-03-26T03:20:27;4.90;99.90
14119;DHT22;7138;49.246;9.100;2023-03-26T03:22:54;4.90;99.90
14119;DHT22;7138;49.246;9.100;2023-03-26T03:25:21;4.90;99.90
14119;DHT22;7138;49.246;9.100;2023-03-26T03:27:47;4.90;99.90
14119;DHT22;7138;49.246;9.100;2023-03-26T03:30:14;4.90;99.90
14119;DHT22;7138;49.246;9.100;2023-03-26T03:32:40;4.90;99.90
14119;DHT22;7138;49.246;9.100;2023-03-26T03:35:07;4.90;99.90
14119;DHT22;7138;49.246;9.100;2023-03-26T03:37:34;5.00;99.90
14119;DHT22;7138;49.246;9.100;2023-03-26T03:40:00;5.00;99.90
14119;DHT22;7138;49.246;9.100;2023-03-26T03:42:26;5.10;99.90
14119;DHT22;7138;49.246;9.100;2023-03-26T03:44:52;5.10;99.90
14119;DHT22;7138;49.246;9.100;2023-03-26T03:47:18;5.10;99.90
14119;DHT22;7138;49.246;9.100;2023-03-26T03:49:44;5.10;99.90
14119;DHT22;7138;49.246;9.100;2023-03-26T03:52:10;5.10;99.90
14119;DHT22;7138;49.246;9.100;2023-03-26T03:54:37;5.10;99.90
14119;DHT22;7138;49.246;9.100;2023-03-26T03:57:03;5.20;99.90
14119;DHT22;7138;49.246;9.100;2023-03-26T03:59:29;5.20;99.90
14119;DHT22;7138;49.246;9.100;2023-03-26T04:01:55;5.40;99.90
14119;DHT22;7138;49.246;9.100;2023-03-26T04:04:21;5.60;99.90
14119;DHT22;7138;49.246;9.100;2023-03-26T04:06:49;5.40;99.90
14119;DHT22;7138;49.246;9.100;2023-03-26T04:09:15;5.30;99.90
14119;DHT22;7138;49.246;9.100;2023-03-26T04:11:42;5.20;99.90
14119;DHT22;7138;49.246;9.100;2023-03-26T04:14:08;5.20;99.90
14119;DHT22;7138;49.246;9.100;2023-03-26T04:16:34;5.10;99.90
14119;DHT22;7138;49.246;9.100;2023-03-26T04:19:00;5.20;99.90
14119;DHT22;7138;49.246;9.100;2023-03-26T04:21:28;5.20;99.90
14119;DHT22;7138;49.246;9.100;2023-03-26T04:23:58;5.30;99.90
14119;DHT22;7138;49.246;9.100;2023-03-26T04:26:26;5.20;99.90
14119;DHT22;7138;49.246;9.100;2023-03-26T04:28:58;5.20;99.90
14119;DHT22;7138;49.246;9.100;2023-03-26T04:31:27;5.20;99.90
14119;DHT22;7138;49.246;9.100;2023-03-26T04:33:55;5.20;99.90
14119;DHT22;7138;49.246;9.100;2023-03-26T04:36:30;5.10;99.90
14119;DHT22;7138;49.246;9.100;2023-03-26T04:39:00;5.10;99.90
14119;DHT22;7138;49.246;9.100;2023-03-26T04:41:30;5.10;99.90
14119;DHT22;7138;49.246;9.100;2023-03-26T04:43:58;5.10;99.90
14119;DHT22;7138;49.246;9.100;2023-03-26T04:46:26;5.30;99.90
14119;DHT22;7138;49.246;9.100;2023-03-26T04:48:53;5.40;99.90
14119;DHT22;7138;49.246;9.100;2023-03-26T04:51:21;5.50;99.90
14119;DHT22;7138;49.246;9.100;2023-03-26T04:53:51;5.50;99.90
14119;DHT22;7138;49.246;9.100;2023-03-26T04:56:29;5.50;99.90
14119;DHT22;7138;49.246;9.100;2023-03-26T04:59:09;5.50;99.90
14119;DHT22;7138;49.246;9.100;2023-03-26T05:01:39;5.50;99.90
14119;DHT22;7138;49.246;9.100;2023-03-26T05:04:06;5.50;99.90
14119;DHT22;7138;49.246;9.100;2023-03-26T05:06:32;5.50;99.90
14119;DHT22;7138;49.246;9.100;2023-03-26T05:08:58;5.50;99.90
14119;DHT22;7138;49.246;9.100;2023-03-26T05:11:24;5.50;99.90
14119;DHT22;7138;49.246;9.100;2023-03-26T05:13:50;5.60;99.90
14119;DHT22;7138;49.246;9.100;2023-03-26T05:16:17;5.60;99.90
14119;DHT22;7138;49.246;9.100;2023-03-26T05:18:43;5.60;99.90
14119;DHT22;7138;49.246;9.100;2023-03-26T05:21:09;5.60;99.90
14119;DHT22;7138;49.246;9.100;2023-03-26T05:23:35;5.70;99.90
14119;DHT22;7138;49.246;9.100;2023-03-26T05:26:01;5.80;99.90
14119;DHT22;7138;49.246;9.100;2023-03-26T05:28:27;5.80;99.90
14119;DHT22;7138;49.246;9.100;2023-03-26T05:30:53;5.80;99.90
14119;DHT22;7138;49.246;9.100;2023-03-26T05:33:21;5.80;99.90
14119;DHT22;7138;49.246;9.100;2023-03-26T05:35:47;5.80;99.90
14119;DHT22;7138;49.246;9.100;2023-03-26T05:38:23;5.80;99.90
14119;DHT22;7138;49.246;9.100;2023-03-26T05:40:49;5.90;99.90
14119;DHT22;7138;49.246;9.100;2023-03-26T05:43:15;5.90;99.90
14119;DHT22;7138;49.246;9.100;2023-03-26T05:45:40;5.90;99.90
14119;DHT22;7138;49.246;9.100;2023-03-26T05:48:06;5.90;99.90
14119;DHT22;7138;49.246;9.100;2023-03-26T05:50:33;5.90;99.90
14119;DHT22;7138;49.246;9.100;2023-03-26T05:52:59;6.00;99.90
14119;DHT22;7138;49.246;9.100;2023-03-26T05:55:25;6.10;99.90
14119;DHT22;7138;49.246;9.100;2023-03-26T05:57:53;6.20;99.90
14119;DHT22;7138;49.246;9.100;2023-03-26T06:00:19;6.20;99.90
14119;DHT22;7138;49.246;9.100;2023-03-26T06:02:45;6.30;99.90
14119;DHT22;7138;49.246;9.100;2023-03-26T06:05:12;6.40;99.90
14119;DHT22;7138;49.246;9.100;2023-03-26T06:07:39;6.40;99.90
14119;DHT22;7138;49.246;9.100;2023-03-26T06:10:06;6.40;99.90
14119;DHT22;7138;49.246;9.100;2023-03-26T06:12:33;6.40;99.90
14119;DHT22;7138;49.246;9.100;2023-03-26T06:14:59;6.40;99.90
14119;DHT22;7138;49.246;9.100;2023-03-26T06:17:25;6.30;99.90
14119;DHT22;7138;49.246;9.100;2023-03-26T06:19:51;6.30;99.90
14119;DHT22;7138;49.246;9.100;2023-03-26T06:22:17;6.20;99.90
14119;DHT22;7138;49.246;9.100;2023-03-26T06:24:44;6.20;99.90
14119;DHT22;7138;49.246;9.100;2023-03-26T06:27:10;6.30;99.90
14119;DHT22;7138;49.246;9.100;2023-03-26T06:29:36;6.20;99.90
14119;DHT22;7138;49.246;9.100;2023-03-26T06:32:01;6.20;99.90
14119;DHT22;7138;49.246;9.100;2023-03-26T06:34:27;6.30;99.90
14119;DHT22;7138;49.246;9.100;2023-03-26T06:36:53;6.20;99.90
14119;DHT22;7138;49.246;9.100;2023-03-26T06:39:19;6.20;99.90
14119;DHT22;7138;49.246;9.100;2023-03-26T06:41:46;6.10;99.90
14119;DHT22;7138;49.246;9.100;2023-03-26T06:44:12;6.20;99.90
14119;DHT22;7138;49.246;9.100;2023-03-26T06:46:38;6.30;99.90
14119;DHT22;7138;49.246;9.100;2023-03-26T06:49:04;6.40;99.90
14119;DHT22;7138;49.246;9.100;2023-03-26T06:51:30;6.40;99.90
14119;DHT22;7138;49.246;9.100;2023-03-26T06:53:56;6.40;99.90
14119;DHT22;7138;49.246;9.100;2023-03-26T06:56:22;6.50;99.90
14119;DHT22;7138;49.246;9.100;2023-03-26T06:58:49;6.50;99.90
14119;DHT22;7138;49.246;9.100;2023-03-26T07:01:15;6.50;99.90
14119;DHT22;7138;49.246;9.100;2023-03-26T07:03:41;6.50;99.90
14119;DHT22;7138;49.246;9.100;2023-03-26T07:06:07;6.60;99.90
14119;DHT22;7138;49.246;9.100;2023-03-26T07:08:33;6.60;99.90
14119;DHT22;7138;49.246;9.100;2023-03-26T07:10:59;6.70;99.90
14119;DHT22;7138;49.246;9.100;2023-03-26T07:13:25;6.80;99.90
14119;DHT22;7138;49.246;9.100;2023-03-26T07:15:52;6.90;99.90
14119;DHT22;7138;49.246;9.100;2023-03-26T07:18:18;7.00;99.90
14119;DHT22;7138;49.246;9.100;2023-03-26T07:20:44;7.00;99.90
14119;DHT22;7138;49.246;9.100;2023-03-26T07:23:11;7.10;99.90
14119;DHT22;7138;49.246;9.100;2023-03-26T07:25:40;7.20;99.90
14119;DHT22;7138;49.246;9.100;2023-03-26T07:28:11;7.20;99.90
14119;DHT22;7138;49.246;9.100;2023-03-26T07:30:57;7.10;99.90
14119;DHT22;7138;49.246;9.100;2023-03-26T07:33:33;7.20;99.90
14119;DHT22;7138;49.246;9.100;2023-03-26T07:36:16;7.20;99.90
14119;DHT22;7138;49.246;9.100;2023-03-26T07:39:10;7.20;99.90
14119;DHT22;7138;49.246;9.100;2023-03-26T07:41:49;7.30;99.90
14119;DHT22;7138;49.246;9.100;2023-03-26T07:44:37;7.40;99.90
14119;DHT22;7138;49.246;9.100;2023-03-26T07:47:22;7.50;99.90
14119;DHT22;7138;49.246;9.100;2023-03-26T07:49:53;7.50;99.90
14119;DHT22;7138;49.246;9.100;2023-03-26T07:52:22;7.50;99.90
14119;DHT22;7138;49.246;9.100;2023-03-26T07:54:49;7.50;99.90
14119;DHT22;7138;49.246;9.100;2023-03-26T07:57:21;7.50;99.90
14119;DHT22;7138;49.246;9.100;2023-03-26T07:59:58;7.50;99.90
14119;DHT22;7138;49.246;9.100;2023-03-26T08:03:01;7.50;99.90
14119;DHT22;7138;49.246;9.100;2023-03-26T08:05:52;7.60;99.90
14119;DHT22;7138;49.246;9.100;2023-03-26T08:08:35;7.60;99.90
14119;DHT22;7138;49.246;9.100;2023-03-26T08:11:16;7.50;99.90
14119;DHT22;7138;49.246;9.100;2023-03-26T08:13:59;7.50;99.90
14119;DHT22;7138;49.246;9.100;2023-03-26T08:16:36;7.50;99.90
14119;DHT22;7138;49.246;9.100;2023-03-26T08:19:23;7.40;99.90
14119;DHT22;7138;49.246;9.100;2023-03-26T08:22:03;7.30;99.90
14119;DHT22;7138;49.246;9.100;2023-03-26T08:24:42;7.20;99.90
14119;DHT22;7138;49.246;9.100;2023-03-26T08:27:29;7.10;99.90
14119;DHT22;7138;49.246;9.100;2023-03-26T08:30:08;7.10;99.90
14119;DHT22;7138;49.246;9.100;2023-03-26T08:32:39;7.10;99.90
14119;DHT22;7138;49.246;9.100;2023-03-26T08:35:10;7.00;99.90
14119;DHT22;7138;49.246;9.100;2023-03-26T08:37:37;7.00;99.90
14119;DHT22;7138;49.246;9.100;2023-03-26T08:40:04;7.10;99.90
14119;DHT22;7138;49.246;9.100;2023-03-26T08:43:00;7.20;99.90
14119;DHT22;7138;49.246;9.100;2023-03-26T08:45:57;7.30;99.90
14119;DHT22;7138;49.246;9.100;2023-03-26T08:52:21;8.00;99.90
14119;DHT22;7138;49.246;9.100;2023-03-26T09:02:14;8.00;99.90
14119;DHT22;7138;49.246;9.100;2023-03-26T09:05:44;7.80;99.90
14119;DHT22;7138;49.246;9.100;2023-03-26T09:12:14;7.40;99.90
14119;DHT22;7138;49.246;9.100;2023-03-26T09:15:20;7.40;99.90
14119;DHT22;7138;49.246;9.100;2023-03-26T09:31:18;7.50;99.90
14119;DHT22;7138;49.246;9.100;2023-03-26T09:34:13;7.30;99.90
14119;DHT22;7138;49.246;9.100;2023-03-26T09:36:55;7.30;99.90
14119;DHT22;7138;49.246;9.100;2023-03-26T09:39:46;7.40;99.90
14119;DHT22;7138;49.246;9.100;2023-03-26T09:42:34;7.70;99.90
14119;DHT22;7138;49.246;9.100;2023-03-26T09:45:21;8.00;99.90
14119;DHT22;7138;49.246;9.100;2023-03-26T09:48:25;7.90;99.90
14119;DHT22;7138;49.246;9.100;2023-03-26T09:54:31;7.90;99.90
14119;DHT22;7138;49.246;9.100;2023-03-26T09:57:41;8.00;99.90
14119;DHT22;7138;49.246;9.100;2023-03-26T10:00:27;8.10;99.90
14119;DHT22;7138;49.246;9.100;2023-03-26T10:03:26;8.20;99.90
14119;DHT22;7138;49.246;9.100;2023-03-26T10:06:05;8.30;99.90
14119;DHT22;7138;49.246;9.100;2023-03-26T10:08:58;8.50;99.90
14119;DHT22;7138;49.246;9.100;2023-03-26T10:11:51;8.90;99.90
14119;DHT22;7138;49.246;9.100;2023-03-26T10:14:33;8.90;99.90
14119;DHT22;7138;49.246;9.100;2023-03-26T10:17:17;9.00;99.90
14119;DHT22;7138;49.246;9.100;2023-03-26T10:20:01;8.80;99.90
14119;DHT22;7138;49.246;9.100;2023-03-26T10:22:59;8.70;99.90
14119;DHT22;7138;49.246;9.100;2023-03-26T10:25:41;8.70;99.90
14119;DHT22;7138;49.246;9.100;2023-03-26T10:28:37;8.50;99.90
14119;DHT22;7138;49.246;9.100;2023-03-26T10:31:37;8.40;99.90
14119;DHT22;7138;49.246;9.100;2023-03-26T10:34:13;8.30;99.90
14119;DHT22;7138;49.246;9.100;2023-03-26T10:36:56;8.30;99.90
14119;DHT22;7138;49.246;9.100;2023-03-26T10:39:42;8.30;99.90
14119;DHT22;7138;49.246;9.100;2023-03-26T10:42:37;8.50;99.90
14119;DHT22;7138;49.246;9.100;2023-03-26T10:45:30;9.70;99.90
14119;DHT22;7138;49.246;9.100;2023-03-26T10:48:33;10.10;99.90
14119;DHT22;7138;49.246;9.100;2023-03-26T10:51:24;10.40;99.90
14119;DHT22;7138;49.246;9.100;2023-03-26T10:54:08;10.40;99.90
14119;DHT22;7138;49.246;9.100;2023-03-26T10:56:40;10.70;99.90
14119;DHT22;7138;49.246;9.100;2023-03-26T10:59:12;10.90;99.90
14119;DHT22;7138;49.246;9.100;2023-03-26T11:01:42;11.10;99.90
14119;DHT22;7138;49.246;9.100;2023-03-26T11:04:22;11.30;99.90
14119;DHT22;7138;49.246;9.100;2023-03-26T11:07:05;11.30;99.90
14119;DHT22;7138;49.246;9.100;2023-03-26T11:09:44;11.50;99.90
14119;DHT22;7138;49.246;9.100;2023-03-26T11:12:21;11.90;99.90
14119;DHT22;7138;49.246;9.100;2023-03-26T11:15:01;11.90;99.90
14119;DHT22;7138;49.246;9.100;2023-03-26T11:17:44;12.20;99.90
14119;DHT22;7138;49.246;9.100;2023-03-26T11:20:19;12.00;99.90
14119;DHT22;7138;49.246;9.100;2023-03-26T11:23:01;12.10;99.90
14119;DHT22;7138;49.246;9.100;2023-03-26T11:25:45;12.00;99.90
14119;DHT22;7138;49.246;9.100;2023-03-26T11:28:28;12.50;99.90
14119;DHT22;7138;49.246;9.100;2023-03-26T11:31:10;12.30;99.90
14119;DHT22;7138;49.246;9.100;2023-03-26T11:33:46;11.80;99.90
14119;DHT22;7138;49.246;9.100;2023-03-26T11:36:18;12.00;99.90
14119;DHT22;7138;49.246;9.100;2023-03-26T11:38:50;11.70;99.90
14119;DHT22;7138;49.246;9.100;2023-03-26T11:41:21;11.70;99.90
14119;DHT22;7138;49.246;9.100;2023-03-26T11:43:52;11.70;99.90
14119;DHT22;7138;49.246;9.100;2023-03-26T11:46:22;11.50;99.90
14119;DHT22;7138;49.246;9.100;2023-03-26T11:48:51;11.50;99.90
14119;DHT22;7138;49.246;9.100;2023-03-26T11:51:28;12.30;99.90
14119;DHT22;7138;49.246;9.100;2023-03-26T11:53:57;12.80;99.90
14119;DHT22;7138;49.246;9.100;2023-03-26T11:56:27;12.40;99.90
14119;DHT22;7138;49.246;9.100;2023-03-26T11:59:00;12.40;99.90
14119;DHT22;7138;49.246;9.100;2023-03-26T12:01:41;12.00;99.90
14119;DHT22;7138;49.246;9.100;2023-03-26T12:04:15;12.50;99.90
14119;DHT22;7138;49.246;9.100;2023-03-26T12:06:52;13.00;99.90
14119;DHT22;7138;49.246;9.100;2023-03-26T12:09:21;13.20;99.90
14119;DHT22;7138;49.246;9.100;2023-03-26T12:11:52;12.80;99.90
14119;DHT22;7138;49.246;9.100;2023-03-26T12:14:26;13.10;99.90
14119;DHT22;7138;49.246;9.100;2023-03-26T12:17:03;13.20;99.90
14119;DHT22;7138;49.246;9.100;2023-03-26T12:19:37;13.30;99.90
14119;DHT22;7138;49.246;9.100;2023-03-26T12:22:26;13.50;99.90
14119;DHT22;7138;49.246;9.100;2023-03-26T12:25:13;13.20;99.90
14119;DHT22;7138;49.246;9.100;2023-03-26T12:27:42;13.10;99.90
14119;DHT22;7138;49.246;9.100;2023-03-26T12:30:11;13.30;99.90
14119;DHT22;7138;49.246;9.100;2023-03-26T12:32:46;13.40;99.90
14119;DHT22;7138;49.246;9.100;2023-03-26T12:35:15;13.20;99.90
14119;DHT22;7138;49.246;9.100;2023-03-26T12:37:46;13.60;99.90
14119;DHT22;7138;49.246;9.100;2023-03-26T12:40:27;13.40;99.90
14119;DHT22;7138;49.246;9.100;2023-03-26T12:42:56;13.00;99.90
14119;DHT22;7138;49.246;9.100;2023-03-26T12:45:28;12.90;99.90
14119;DHT22;7138;49.246;9.100;2023-03-26T12:47:56;13.20;99.90
14119;DHT22;7138;49.246;9.100;2023-03-26T12:50:31;13.50;99.90
14119;DHT22;7138;49.246;9.100;2023-03-26T12:53:33;13.40;99.90
14119;DHT22;7138;49.246;9.100;2023-03-26T12:56:14;13.70;99.90
14119;DHT22;7138;49.246;9.100;2023-03-26T12:58:49;13.70;99.90
14119;DHT22;7138;49.246;9.100;2023-03-26T13:01:38;13.20;99.90
14119;DHT22;7138;49.246;9.100;2023-03-26T13:04:36;12.70;99.90
14119;DHT22;7138;49.246;9.100;2023-03-26T13:07:24;12.70;99.90
14119;DHT22;7138;49.246;9.100;2023-03-26T13:13:16;12.90;99.90
14119;DHT22;7138;49.246;9.100;2023-03-26T13:15:59;13.20;99.90
14119;DHT22;7138;49.246;9.100;2023-03-26T13:18:41;12.80;99.90
14119;DHT22;7138;49.246;9.100;2023-03-26T13:21:18;12.50;99.90
14119;DHT22;7138;49.246;9.100;2023-03-26T13:24:00;12.40;99.90
14119;DHT22;7138;49.246;9.100;2023-03-26T13:26:45;12.30;99.90
14119;DHT22;7138;49.246;9.100;2023-03-26T13:29:30;12.40;99.90
14119;DHT22;7138;49.246;9.100;2023-03-26T13:32:07;12.30;99.90
14119;DHT22;7138;49.246;9.100;2023-03-26T13:34:53;12.50;99.90
14119;DHT22;7138;49.246;9.100;2023-03-26T13:37:34;12.80;99.90
14119;DHT22;7138;49.246;9.100;2023-03-26T13:40:20;13.20;99.90
14119;DHT22;7138;49.246;9.100;2023-03-26T13:43:03;13.60;99.90
14119;DHT22;7138;49.246;9.100;2023-03-26T13:45:47;14.00;99.90
14119;DHT22;7138;49.246;9.100;2023-03-26T13:48:23;14.30;99.90
14119;DHT22;7138;49.246;9.100;2023-03-26T13:50:58;13.90;99.90
14119;DHT22;7138;49.246;9.100;2023-03-26T13:53:35;13.80;99.90
14119;DHT22;7138;49.246;9.100;2023-03-26T13:56:09;14.00;99.90
14119;DHT22;7138;49.246;9.100;2023-03-26T13:58:43;14.20;99.90
14119;DHT22;7138;49.246;9.100;2023-03-26T14:01:15;14.30;99.90
14119;DHT22;7138;49.246;9.100;2023-03-26T14:03:52;14.20;99.90
14119;DHT22;7138;49.246;9.100;2023-03-26T14:06:37;13.50;99.90
14119;DHT22;7138;49.246;9.100;2023-03-26T14:09:15;13.20;99.90
14119;DHT22;7138;49.246;9.100;2023-03-26T14:12:25;13.20;99.90
14119;DHT22;7138;49.246;9.100;2023-03-26T14:15:00;13.10;99.90
14119;DHT22;7138;49.246;9.100;2023-03-26T14:17:33;13.10;99.90
14119;DHT22;7138;49.246;9.100;2023-03-26T14:20:27;13.20;99.90
14119;DHT22;7138;49.246;9.100;2023-03-26T14:23:24;13.00;99.90
14119;DHT22;7138;49.246;9.100;2023-03-26T14:26:14;12.90;99.90
14119;DHT22;7138;49.246;9.100;2023-03-26T14:32:23;12.60;99.90
14119;DHT22;7138;49.246;9.100;2023-03-26T14:35:18;12.70;99.90
14119;DHT22;7138;49.246;9.100;2023-03-26T14:38:13;12.60;99.90
14119;DHT22;7138;49.246;9.100;2023-03-26T14:41:04;12.50;99.90
14119;DHT22;7138;49.246;9.100;2023-03-26T14:47:09;12.30;99.90
14119;DHT22;7138;49.246;9.100;2023-03-26T14:52:58;11.80;99.90
14119;DHT22;7138;49.246;9.100;2023-03-26T14:55:59;11.40;99.90
14119;DHT22;7138;49.246;9.100;2023-03-26T15:06:02;10.40;99.90
14119;DHT22;7138;49.246;9.100;2023-03-26T15:09:12;9.80;99.90
14119;DHT22;7138;49.246;9.100;2023-03-26T15:12:22;9.50;99.90
14119;DHT22;7138;49.246;9.100;2023-03-26T15:15:32;9.10;99.90
14119;DHT22;7138;49.246;9.100;2023-03-26T15:18:35;8.90;99.90
14119;DHT22;7138;49.246;9.100;2023-03-26T15:21:43;8.70;99.90
14119;DHT22;7138;49.246;9.100;2023-03-26T15:28:44;8.30;99.90
14119;DHT22;7138;49.246;9.100;2023-03-26T15:31:49;8.20;99.90
14119;DHT22;7138;49.246;9.100;2023-03-26T15:35:04;8.00;99.90
14119;DHT22;7138;49.246;9.100;2023-03-26T15:38:14;8.00;99.90
14119;DHT22;7138;49.246;9.100;2023-03-26T15:41:15;7.80;99.90
14119;DHT22;7138;49.246;9.100;2023-03-26T15:44:22;7.60;99.90
14119;DHT22;7138;49.246;9.100;2023-03-26T15:47:30;7.60;99.90
14119;DHT22;7138;49.246;9.100;2023-03-26T15:50:25;7.50;99.90
14119;DHT22;7138;49.246;9.100;2023-03-26T15:53:12;7.50;99.90
14119;DHT22;7138;49.246;9.100;2023-03-26T15:56:06;7.40;99.90
14119;DHT22;7138;49.246;9.100;2023-03-26T15:58:47;7.40;99.90
14119;DHT22;7138;49.246;9.100;2023-03-26T16:01:27;7.40;99.90
14119;DHT22;7138;49.246;9.100;2023-03-26T16:04:18;7.40;99.90
14119;DHT22;7138;49.246;9.100;2023-03-26T16:06:58;7.40;99.90
14119;DHT22;7138;49.246;9.100;2023-03-26T16:09:56;7.30;99.90
14119;DHT22;7138;49.246;9.100;2023-03-26T16:12:45;7.30;99.90
14119;DHT22;7138;49.246;9.100;2023-03-26T16:15:27;7.30;99.90
14119;DHT22;7138;49.246;9.100;2023-03-26T16:18:18;7.30;99.90
14119;DHT22;7138;49.246;9.100;2023-03-26T16:20:53;7.30;99.90
14119;DHT22;7138;49.246;9.100;2023-03-26T16:23:28;7.30;99.90
14119;DHT22;7138;49.246;9.100;2023-03-26T16:26:11;7.40;99.90
14119;DHT22;7138;49.246;9.100;2023-03-26T16:29:11;7.40;99.90
14119;DHT22;7138;49.246;9.100;2023-03-26T16:32:12;7.40;99.90
14119;DHT22;7138;49.246;9.100;2023-03-26T16:34:46;7.30;99.90
14119;DHT22;7138;49.246;9.100;2023-03-26T16:37:40;7.30;99.90
14119;DHT22;7138;49.246;9.100;2023-03-26T16:40:33;7.30;99.90
14119;DHT22;7138;49.246;9.100;2023-03-26T16:43:16;7.30;99.90
14119;DHT22;7138;49.246;9.100;2023-03-26T16:46:08;7.30;99.90
14119;DHT22;7138;49.246;9.100;2023-03-26T16:48:53;7.30;99.90
14119;DHT22;7138;49.246;9.100;2023-03-26T16:51:26;7.20;99.90
14119;DHT22;7138;49.246;9.100;2023-03-26T16:54:11;7.20;99.90
14119;DHT22;7138;49.246;9.100;2023-03-26T16:56:51;7.20;99.90
14119;DHT22;7138;49.246;9.100;2023-03-26T16:59:48;7.10;99.90
14119;DHT22;7138;49.246;9.100;2023-03-26T17:02:30;7.10;99.90
14119;DHT22;7138;49.246;9.100;2023-03-26T17:05:07;7.00;99.90
14119;DHT22;7138;49.246;9.100;2023-03-26T17:07:47;7.00;99.90
14119;DHT22;7138;49.246;9.100;2023-03-26T17:10:30;7.00;99.90
14119;DHT22;7138;49.246;9.100;2023-03-26T17:13:06;7.00;99.90
14119;DHT22;7138;49.246;9.100;2023-03-26T17:15:43;7.00;99.90
14119;DHT22;7138;49.246;9.100;2023-03-26T17:18:37;7.00;99.90
14119;DHT22;7138;49.246;9.100;2023-03-26T17:21:13;6.90;99.90
14119;DHT22;7138;49.246;9.100;2023-03-26T17:23:59;6.90;99.90
14119;DHT22;7138;49.246;9.100;2023-03-26T17:26:44;6.90;99.90
14119;DHT22;7138;49.246;9.100;2023-03-26T17:29:25;6.90;99.90
14119;DHT22;7138;49.246;9.100;2023-03-26T17:32:04;6.90;99.90
14119;DHT22;7138;49.246;9.100;2023-03-26T17:34:54;6.90;99.90
14119;DHT22;7138;49.246;9.100;2023-03-26T17:37:39;6.90;99.90
14119;DHT22;7138;49.246;9.100;2023-03-26T17:40:45;6.80;99.90
14119;DHT22;7138;49.246;9.100;2023-03-26T17:43:33;6.80;99.90
14119;DHT22;7138;49.246;9.100;2023-03-26T17:46:26;6.80;99.90
14119;DHT22;7138;49.246;9.100;2023-03-26T17:49:02;6.80;99.90
14119;DHT22;7138;49.246;9.100;2023-03-26T17:51:41;6.80;99.90
14119;DHT22;7138;49.246;9.100;2023-03-26T17:54:18;6.80;99.90